createdAt,value
2023-02-06T00:01:38.693Z,183.98
2023-02-06T00:04:06.017Z,173.13
2023-02-06T00:06:33.463Z,161.02
2023-02-06T00:09:01.027Z,138.68
2023-02-06T00:11:30.752Z,123.00
2023-02-06T00:13:58.340Z,119.28
2023-02-06T00:16:30.998Z,112.15
2023-02-06T00:19:03.606Z,113.22
2023-02-06T00:21:33.608Z,121.53
2023-02-06T00:24:02.368Z,119.40
2023-02-06T00:26:32.570Z,122.05
2023-02-06T00:29:02.399Z,123.00
2023-02-06T00:31:29.656Z,129.13
2023-02-06T00:33:57.188Z,129.10
2023-02-06T00:36:24.283Z,128.63
2023-02-06T00:38:51.623Z,132.88
2023-02-06T00:41:21.074Z,129.13
2023-02-06T00:43:50.902Z,127.20
2023-02-06T00:46:17.968Z,135.30
2023-02-06T00:48:45.305Z,127.97
2023-02-06T00:51:12.352Z,122.53
2023-02-06T00:53:39.662Z,126.90
2023-02-06T00:56:06.917Z,105.72
2023-02-06T00:58:34.298Z,97.93
2023-02-06T01:01:03.635Z,93.93
2023-02-06T01:03:31.005Z,92.15
2023-02-06T01:06:00.579Z,90.10
2023-02-06T01:08:28.751Z,86.25
2023-02-06T01:10:55.862Z,87.97
2023-02-06T01:13:23.271Z,91.15
2023-02-06T01:15:51.260Z,98.68
2023-02-06T01:18:18.771Z,98.30
2023-02-06T01:20:45.795Z,103.13
2023-02-06T01:23:13.119Z,118.78
2023-02-06T01:25:40.151Z,118.85
2023-02-06T01:28:09.742Z,117.00
2023-02-06T01:30:39.319Z,122.30
2023-02-06T01:33:06.683Z,125.63
2023-02-06T01:35:36.550Z,104.63
2023-02-06T01:38:06.381Z,112.50
2023-02-06T01:40:33.474Z,102.32
2023-02-06T01:43:00.814Z,84.18
2023-02-06T01:45:41.323Z,75.85
2023-02-06T01:48:18.872Z,66.88
2023-02-06T01:50:51.104Z,74.20
2023-02-06T01:53:22.066Z,78.03
2023-02-06T01:55:50.966Z,71.93
2023-02-06T01:58:26.397Z,71.35
2023-02-06T02:00:53.778Z,70.35
2023-02-06T02:03:24.676Z,73.50
2023-02-06T02:05:53.802Z,72.07
2023-02-06T02:08:38.822Z,67.65
2023-02-06T02:11:10.221Z,67.70
2023-02-06T02:13:38.993Z,74.53
2023-02-06T02:16:41.630Z,70.88
2023-02-06T02:19:15.184Z,65.28
2023-02-06T02:22:16.278Z,65.55
2023-02-06T02:25:13.680Z,70.10
2023-02-06T02:28:11.288Z,65.28
2023-02-06T02:30:44.473Z,70.55
2023-02-06T02:33:17.088Z,66.57
2023-02-06T02:35:56.299Z,75.22
2023-02-06T02:38:23.312Z,75.65
2023-02-06T02:41:03.172Z,75.72
2023-02-06T02:44:02.344Z,81.30
2023-02-06T02:46:33.499Z,81.88
2023-02-06T02:49:17.115Z,81.55
2023-02-06T02:51:46.636Z,73.70
2023-02-06T02:54:14.033Z,64.70
2023-02-06T02:56:42.256Z,66.82
2023-02-06T02:59:32.663Z,68.20
2023-02-06T03:02:09.726Z,63.85
2023-02-06T03:04:59.261Z,60.17
2023-02-06T03:07:49.617Z,56.83
2023-02-06T03:10:48.323Z,60.53
2023-02-06T03:13:41.671Z,62.13
2023-02-06T03:16:36.188Z,60.80
2023-02-06T03:19:33.034Z,61.72
2023-02-06T03:22:05.336Z,68.65
2023-02-06T03:24:39.314Z,67.28
2023-02-06T03:27:15.927Z,62.75
2023-02-06T03:29:44.836Z,68.28
2023-02-06T03:32:22.799Z,72.82
2023-02-06T03:35:04.993Z,77.07
2023-02-06T03:37:35.416Z,81.57
2023-02-06T03:40:04.542Z,74.05
2023-02-06T03:42:34.187Z,75.93
2023-02-06T03:45:07.876Z,74.10
2023-02-06T03:47:38.192Z,74.22
2023-02-06T03:50:07.450Z,72.25
2023-02-06T03:52:39.767Z,74.00
2023-02-06T03:55:17.419Z,73.85
2023-02-06T03:57:47.742Z,70.28
2023-02-06T04:03:03.543Z,69.00
2023-02-06T04:05:33.378Z,62.92
2023-02-06T04:08:00.636Z,66.30
2023-02-06T04:10:27.993Z,58.28
2023-02-06T04:12:57.418Z,62.20
2023-02-06T04:15:24.796Z,65.35
2023-02-06T04:17:59.874Z,65.97
2023-02-06T04:20:28.348Z,67.28
2023-02-06T04:22:57.789Z,69.32
2023-02-06T04:25:27.893Z,64.85
2023-02-06T04:27:54.976Z,66.32
2023-02-06T04:30:22.392Z,71.47
2023-02-06T04:32:54.016Z,66.32
2023-02-06T04:35:21.423Z,64.90
2023-02-06T04:37:48.466Z,72.95
2023-02-06T04:40:16.181Z,74.63
2023-02-06T04:42:43.228Z,69.63
2023-02-06T04:45:13.153Z,75.30
2023-02-06T04:47:40.205Z,68.47
2023-02-06T04:50:10.035Z,79.40
2023-02-06T04:52:39.486Z,88.78
2023-02-06T04:55:07.248Z,93.55
2023-02-06T04:57:36.830Z,95.60
2023-02-06T05:00:06.493Z,90.82
2023-02-06T05:02:35.818Z,74.53
2023-02-06T05:05:06.867Z,73.10
2023-02-06T05:07:34.537Z,63.88
2023-02-06T05:10:04.897Z,67.55
2023-02-06T05:12:34.424Z,59.97
2023-02-06T05:15:01.776Z,57.03
2023-02-06T05:17:31.364Z,56.45
2023-02-06T05:20:01.027Z,60.90
2023-02-06T05:22:28.192Z,56.97
2023-02-06T05:24:58.036Z,55.97
2023-02-06T05:27:25.122Z,56.60
2023-02-06T05:29:54.716Z,55.40
2023-02-06T05:32:24.264Z,58.80
2023-02-06T05:34:53.849Z,54.28
2023-02-06T05:37:20.877Z,52.28
2023-02-06T05:39:50.714Z,62.45
2023-02-06T05:42:17.761Z,57.60
2023-02-06T05:44:45.146Z,65.38
2023-02-06T05:47:12.208Z,68.03
2023-02-06T05:49:39.621Z,56.95
2023-02-06T05:52:11.137Z,60.15
2023-02-06T05:54:38.475Z,53.75
2023-02-06T05:57:05.601Z,50.97
2023-02-06T05:59:33.012Z,57.70
2023-02-06T06:02:00.342Z,56.88
2023-02-06T06:04:27.796Z,60.88
2023-02-06T06:06:54.927Z,65.65
2023-02-06T06:09:24.789Z,60.83
2023-02-06T06:11:51.805Z,60.10
2023-02-06T06:14:19.192Z,66.97
2023-02-06T06:16:46.254Z,61.08
2023-02-06T06:19:13.618Z,58.13
2023-02-06T06:21:40.671Z,66.82
2023-02-06T06:24:08.153Z,61.92
2023-02-06T06:26:37.721Z,61.75
2023-02-06T06:29:05.387Z,56.97
2023-02-06T06:31:32.538Z,58.67
2023-02-06T06:34:00.044Z,57.47
2023-02-06T06:36:27.078Z,59.17
2023-02-06T06:38:56.964Z,61.95
2023-02-06T06:41:24.001Z,64.03
2023-02-06T06:43:54.397Z,71.20
2023-02-06T06:46:21.455Z,71.20
2023-02-06T06:48:48.972Z,69.70
2023-02-06T06:51:16.138Z,71.65
2023-02-06T06:53:45.793Z,73.55
2023-02-06T06:56:14.832Z,67.40
2023-02-06T06:58:42.617Z,73.50
2023-02-06T07:01:09.818Z,72.07
2023-02-06T07:03:37.232Z,78.07
2023-02-06T07:06:06.808Z,73.45
2023-02-06T07:08:34.190Z,69.40
2023-02-06T07:11:01.261Z,56.88
2023-02-06T07:13:33.133Z,62.00
2023-02-06T07:16:00.206Z,57.65
2023-02-06T07:18:27.583Z,56.60
2023-02-06T07:20:54.729Z,57.08
2023-02-06T07:23:22.088Z,77.95
2023-02-06T07:25:52.242Z,83.90
2023-02-06T07:28:19.579Z,53.53
2023-02-06T07:30:46.623Z,52.42
2023-02-06T07:33:13.946Z,46.55
2023-02-06T07:35:43.526Z,46.47
2023-02-06T07:38:10.809Z,46.50
2023-02-06T07:40:44.947Z,48.35
2023-02-06T07:43:13.678Z,51.08
2023-02-06T07:45:41.046Z,44.03
2023-02-06T07:48:08.688Z,38.95
2023-02-06T07:50:38.438Z,53.58
2023-02-06T07:53:05.804Z,47.03
2023-02-06T07:55:36.583Z,52.75
2023-02-06T07:58:04.604Z,51.25
2023-02-06T08:00:34.134Z,63.90
2023-02-06T08:03:01.548Z,65.05
2023-02-06T08:05:28.873Z,69.28
2023-02-06T08:07:56.208Z,68.60
2023-02-06T08:10:28.539Z,72.05
2023-02-06T08:12:58.069Z,81.05
2023-02-06T08:15:27.612Z,75.53
2023-02-06T08:17:54.969Z,84.80
2023-02-06T08:20:22.016Z,83.97
2023-02-06T08:22:49.484Z,94.88
2023-02-06T08:25:16.634Z,94.25
2023-02-06T08:27:44.025Z,94.95
2023-02-06T08:30:12.013Z,94.93
2023-02-06T08:32:39.503Z,93.78
2023-02-06T08:35:06.817Z,85.45
2023-02-06T08:37:34.178Z,84.40
2023-02-06T08:40:01.239Z,84.75
2023-02-06T08:42:31.038Z,92.07
2023-02-06T08:45:00.536Z,90.43
2023-02-06T08:47:27.917Z,89.35
2023-02-06T08:49:57.408Z,90.10
2023-02-06T08:52:24.777Z,86.22
2023-02-06T08:54:54.443Z,88.25
2023-02-06T08:57:24.401Z,95.97
2023-02-06T08:59:51.435Z,97.28
2023-02-06T09:02:18.844Z,87.22
2023-02-06T09:04:47.074Z,73.82
2023-02-06T09:07:17.418Z,68.78
2023-02-06T09:09:44.475Z,65.95
2023-02-06T09:12:15.124Z,58.55
2023-02-06T09:14:46.715Z,54.47
2023-02-06T09:17:14.147Z,53.88
2023-02-06T09:19:41.384Z,60.50
2023-02-06T09:22:08.737Z,52.60
2023-02-06T09:24:35.787Z,46.22
2023-02-06T09:27:03.147Z,41.58
2023-02-06T09:29:30.826Z,40.63
2023-02-06T09:31:58.254Z,45.20
2023-02-06T09:34:25.803Z,31.80
2023-02-06T09:36:53.478Z,33.85
2023-02-06T09:39:20.667Z,37.25
2023-02-06T09:41:51.669Z,30.13
2023-02-06T09:44:29.469Z,27.65
2023-02-06T09:47:26.676Z,20.75
2023-02-06T09:50:03.926Z,19.10
2023-02-06T09:53:00.779Z,21.15
2023-02-06T09:55:47.681Z,18.23
2023-02-06T09:58:42.260Z,20.38
2023-02-06T10:01:19.275Z,25.73
2023-02-06T10:04:24.524Z,31.48
2023-02-06T10:07:19.690Z,30.65
2023-02-06T10:09:54.130Z,33.08
2023-02-06T10:12:45.943Z,36.83
2023-02-06T10:15:25.037Z,27.17
2023-02-06T10:18:17.758Z,24.67
2023-02-06T10:20:58.539Z,28.65
2023-02-06T10:23:47.738Z,29.42
2023-02-06T10:26:19.212Z,32.08
2023-02-06T10:28:55.529Z,29.60
2023-02-06T10:31:44.280Z,26.10
2023-02-06T10:34:26.709Z,23.33
2023-02-06T10:37:15.701Z,32.15
2023-02-06T10:39:54.554Z,27.10
2023-02-06T10:42:50.095Z,23.80
2023-02-06T10:45:21.908Z,23.92
2023-02-06T10:48:01.337Z,25.63
2023-02-06T10:50:37.422Z,22.58
2023-02-06T10:53:17.674Z,20.45
2023-02-06T10:55:56.085Z,20.83
2023-02-06T10:58:35.225Z,17.23
2023-02-06T11:01:20.083Z,14.68
2023-02-06T11:04:03.612Z,15.52
2023-02-06T11:06:33.427Z,14.93
2023-02-06T11:09:03.926Z,19.05
2023-02-06T11:11:36.892Z,16.55
2023-02-06T11:14:19.007Z,19.73
2023-02-06T11:16:49.055Z,16.65
2023-02-06T11:19:26.847Z,18.35
2023-02-06T11:22:12.734Z,16.45
2023-02-06T11:24:59.787Z,14.85
2023-02-06T11:27:28.196Z,15.73
2023-02-06T11:30:01.748Z,16.23
2023-02-06T11:32:45.025Z,16.92
2023-02-06T11:35:46.171Z,17.65
2023-02-06T11:38:24.519Z,19.52
2023-02-06T11:40:56.672Z,17.55
2023-02-06T11:43:42.104Z,20.80
2023-02-06T11:46:28.630Z,19.98
2023-02-06T11:48:55.651Z,17.08
2023-02-06T11:51:24.738Z,16.48
2023-02-06T11:54:03.150Z,14.88
2023-02-06T11:56:31.825Z,15.25
2023-02-06T11:59:14.685Z,17.77
2023-02-06T12:01:44.853Z,16.00
2023-02-06T12:04:40.645Z,13.23
2023-02-06T12:07:16.295Z,17.52
2023-02-06T12:09:43.582Z,20.17
2023-02-06T12:12:28.367Z,17.90
2023-02-06T12:15:36.152Z,20.90
2023-02-06T12:18:23.741Z,19.15
2023-02-06T12:20:59.524Z,23.85
2023-02-06T12:24:01.169Z,19.67
2023-02-06T12:26:33.898Z,19.67
2023-02-06T12:29:22.449Z,20.17
2023-02-06T12:32:23.331Z,20.48
2023-02-06T12:35:22.871Z,19.48
2023-02-06T12:37:57.053Z,19.55
2023-02-06T12:40:27.083Z,20.35
2023-02-06T12:43:02.977Z,21.48
2023-02-06T12:45:55.356Z,21.50
2023-02-06T12:48:22.523Z,18.67
2023-02-06T12:51:19.673Z,21.25
2023-02-06T12:54:12.967Z,20.00
2023-02-06T12:56:50.332Z,18.77
2023-02-06T12:59:38.534Z,17.55
2023-02-06T13:02:54.070Z,16.10
2023-02-06T13:05:35.936Z,19.95
2023-02-06T13:08:14.132Z,19.75
2023-02-06T13:10:44.270Z,24.13
2023-02-06T13:13:30.620Z,20.63
2023-02-06T13:15:58.714Z,29.85
2023-02-06T13:18:41.489Z,19.02
2023-02-06T13:21:26.740Z,19.70
2023-02-06T13:24:03.123Z,18.17
2023-02-06T13:26:46.005Z,20.80
2023-02-06T13:29:22.321Z,19.42
2023-02-06T13:31:49.469Z,22.70
2023-02-06T13:34:18.445Z,23.08
2023-02-06T13:36:47.232Z,20.27
2023-02-06T13:39:22.703Z,18.20
2023-02-06T13:41:52.251Z,20.13
2023-02-06T13:44:32.247Z,20.27
2023-02-06T13:47:28.481Z,22.20
2023-02-06T13:50:24.559Z,19.35
2023-02-06T13:53:26.544Z,21.58
2023-02-06T13:56:09.397Z,20.58
2023-02-06T13:58:38.668Z,19.48
2023-02-06T14:01:18.391Z,20.38
2023-02-06T14:03:53.021Z,22.88
2023-02-06T14:07:00.226Z,21.48
2023-02-06T14:09:59.381Z,26.27
2023-02-06T14:12:41.599Z,21.20
2023-02-06T14:15:44.112Z,23.40
2023-02-06T14:18:40.275Z,23.80
2023-02-06T14:21:21.430Z,21.10
2023-02-06T14:23:51.522Z,23.13
2023-02-06T14:26:35.206Z,22.25
2023-02-06T14:29:36.318Z,21.92
2023-02-06T14:32:41.588Z,21.65
2023-02-06T14:35:14.927Z,25.85
2023-02-06T14:38:02.073Z,23.40
2023-02-06T14:40:34.443Z,21.63
2023-02-06T14:43:07.832Z,23.38
2023-02-06T14:45:42.398Z,21.33
2023-02-06T14:48:35.936Z,21.35
2023-02-06T14:51:06.620Z,25.38
2023-02-06T14:53:37.538Z,24.40
2023-02-06T14:56:24.289Z,24.40
2023-02-06T14:58:51.516Z,26.60
2023-02-06T15:01:18.968Z,22.90
2023-02-06T15:03:48.231Z,23.23
2023-02-06T15:06:36.152Z,23.30
2023-02-06T15:09:03.453Z,24.02
2023-02-06T15:11:34.268Z,30.85
2023-02-06T15:14:04.786Z,24.35
2023-02-06T15:16:48.763Z,25.50
2023-02-06T15:19:22.297Z,23.92
2023-02-06T15:21:52.463Z,27.27
2023-02-06T15:24:31.688Z,25.67
2023-02-06T15:27:06.074Z,23.63
2023-02-06T15:29:33.340Z,22.77
2023-02-06T15:32:06.616Z,24.92
2023-02-06T15:34:36.696Z,24.17
2023-02-06T15:37:20.625Z,26.63
2023-02-06T15:39:50.886Z,24.05
2023-02-06T15:42:22.115Z,25.40
2023-02-06T15:44:50.101Z,26.02
2023-02-06T15:47:19.211Z,26.60
2023-02-06T15:49:50.456Z,27.02
2023-02-06T15:52:36.577Z,23.92
2023-02-06T15:55:03.947Z,27.05
2023-02-06T15:57:39.734Z,30.20
2023-02-06T16:00:19.065Z,27.23
2023-02-06T16:02:46.561Z,26.05
2023-02-06T16:05:33.812Z,29.42
2023-02-06T16:08:03.160Z,31.73
2023-02-06T16:10:39.666Z,26.60
2023-02-06T16:13:16.167Z,31.35
2023-02-06T16:16:07.847Z,33.20
2023-02-06T16:18:40.070Z,31.10
2023-02-06T16:21:16.210Z,33.88
2023-02-06T16:23:59.977Z,31.67
2023-02-06T16:26:39.746Z,28.73
2023-02-06T16:29:10.111Z,30.45
2023-02-06T16:31:40.791Z,29.65
2023-02-06T16:34:32.554Z,31.75
2023-02-06T16:37:02.281Z,38.10
2023-02-06T16:39:31.852Z,32.92
2023-02-06T16:41:58.985Z,35.30
2023-02-06T16:44:36.112Z,37.55
2023-02-06T16:47:17.987Z,35.58
2023-02-06T16:49:46.154Z,34.47
2023-02-06T16:52:19.437Z,35.85
2023-02-06T16:54:47.584Z,36.00
2023-02-06T16:57:31.961Z,36.15
2023-02-06T16:59:59.630Z,41.42
2023-02-06T17:02:27.507Z,42.30
2023-02-06T17:04:55.517Z,38.40
2023-02-06T17:07:27.635Z,39.58
2023-02-06T17:09:59.437Z,42.28
2023-02-06T17:12:26.560Z,46.28
2023-02-06T17:14:54.299Z,44.20
2023-02-06T17:17:24.877Z,46.22
2023-02-06T17:19:52.724Z,46.08
2023-02-06T17:22:20.589Z,45.30
2023-02-06T17:24:47.964Z,52.83
2023-02-06T17:27:22.666Z,46.48
2023-02-06T17:29:50.545Z,44.00
2023-02-06T17:32:20.104Z,49.22
2023-02-06T17:34:48.016Z,52.72
2023-02-06T17:37:15.095Z,51.53
2023-02-06T17:39:42.560Z,59.65
2023-02-06T17:42:09.638Z,60.17
2023-02-06T17:44:37.030Z,56.50
2023-02-06T17:47:04.250Z,56.70
2023-02-06T17:49:31.637Z,54.17
2023-02-06T17:51:58.675Z,57.25
2023-02-06T17:54:30.582Z,62.72
2023-02-06T17:56:57.771Z,62.97
2023-02-06T17:59:27.390Z,61.47
2023-02-06T18:01:57.071Z,66.95
2023-02-06T18:04:24.857Z,64.57
2023-02-06T18:06:51.939Z,65.57
2023-02-06T18:09:19.564Z,76.10
2023-02-06T18:11:46.867Z,76.20
2023-02-06T18:14:14.264Z,198.45
2023-02-06T18:16:41.431Z,102.25
2023-02-06T18:19:09.846Z,91.10
2023-02-06T18:21:36.912Z,101.47
2023-02-06T18:24:05.401Z,94.68
2023-02-06T18:26:32.688Z,95.95
2023-02-06T18:29:04.228Z,96.70
2023-02-06T18:31:33.299Z,101.78
2023-02-06T18:34:03.516Z,104.78
2023-02-06T18:36:30.829Z,106.63
2023-02-06T18:38:58.411Z,101.05
2023-02-06T18:41:27.962Z,83.63
2023-02-06T18:43:55.321Z,79.30
2023-02-06T18:46:22.474Z,76.40
2023-02-06T18:48:53.735Z,100.63
2023-02-06T18:51:21.347Z,135.65
2023-02-06T18:53:51.044Z,153.35
2023-02-06T18:56:20.954Z,211.85
2023-02-06T18:58:48.385Z,251.77
2023-02-06T19:01:22.362Z,280.92
2023-02-06T19:03:53.325Z,279.05
2023-02-06T19:06:25.477Z,274.45
2023-02-06T19:08:56.055Z,284.20
2023-02-06T19:11:23.256Z,228.68
2023-02-06T19:13:50.763Z,270.10
2023-02-06T19:16:20.312Z,268.13
2023-02-06T19:18:51.057Z,265.63
2023-02-06T19:21:22.511Z,255.68
2023-02-06T19:23:57.890Z,260.33
2023-02-06T19:26:25.890Z,250.68
2023-02-06T19:28:56.000Z,241.25
2023-02-06T19:31:25.709Z,211.52
2023-02-06T19:33:55.738Z,195.98
2023-02-06T19:36:24.476Z,199.15
2023-02-06T19:38:55.998Z,222.70
2023-02-06T19:41:25.335Z,218.63
2023-02-06T19:44:00.366Z,216.63
2023-02-06T19:46:27.965Z,222.45
2023-02-06T19:48:56.175Z,222.40
2023-02-06T19:51:26.259Z,227.65
2023-02-06T19:53:55.190Z,218.80
2023-02-06T19:56:27.840Z,225.40
2023-02-06T19:58:56.374Z,227.02
2023-02-06T20:01:28.148Z,252.10
2023-02-06T20:03:56.878Z,253.98
2023-02-06T20:06:23.996Z,262.10
2023-02-06T20:08:51.728Z,231.55
2023-02-06T20:11:22.444Z,219.23
2023-02-06T20:13:52.761Z,209.18
2023-02-06T20:16:24.662Z,202.05
2023-02-06T20:18:52.614Z,210.23
2023-02-06T20:21:22.686Z,216.20
2023-02-06T20:23:52.885Z,207.82
2023-02-06T20:26:24.900Z,176.15
2023-02-06T20:28:57.490Z,161.13
2023-02-06T20:31:24.786Z,156.43
2023-02-06T20:33:52.815Z,183.27
2023-02-06T20:36:23.014Z,188.50
2023-02-06T20:39:00.477Z,208.38
2023-02-06T20:41:31.167Z,230.55
2023-02-06T20:44:00.604Z,223.52
2023-02-06T20:46:29.556Z,212.75
2023-02-06T20:49:00.876Z,208.60
2023-02-06T20:51:28.966Z,238.73
2023-02-06T20:53:56.366Z,233.07
2023-02-06T20:56:25.145Z,228.57
2023-02-06T20:58:52.843Z,228.80
2023-02-06T21:01:24.926Z,232.82
2023-02-06T21:03:58.372Z,220.10
2023-02-06T21:06:25.911Z,203.87
2023-02-06T21:08:53.378Z,195.05
2023-02-06T21:11:22.909Z,203.95
2023-02-06T21:13:50.267Z,200.32
2023-02-06T21:16:17.462Z,208.35
2023-02-06T21:18:45.805Z,208.77
2023-02-06T21:21:14.426Z,230.15
2023-02-06T21:23:46.066Z,236.45
2023-02-06T21:26:13.838Z,241.32
2023-02-06T21:28:41.604Z,249.77
2023-02-06T21:31:23.560Z,277.02
2023-02-06T21:33:52.341Z,347.20
2023-02-06T21:36:21.765Z,335.60
2023-02-06T21:38:49.108Z,316.02
2023-02-06T21:41:18.594Z,303.67
2023-02-06T21:43:48.608Z,300.02
2023-02-06T21:46:15.756Z,305.50
2023-02-06T21:48:43.122Z,292.10
2023-02-06T21:51:15.713Z,270.80
2023-02-06T21:53:46.300Z,268.63
2023-02-06T21:56:25.165Z,254.35
2023-02-06T21:58:52.774Z,317.17
2023-02-06T22:01:24.267Z,323.38
2023-02-06T22:03:52.384Z,262.38
2023-02-06T22:06:20.242Z,328.45
2023-02-06T22:08:52.581Z,325.65
2023-02-06T22:11:24.070Z,342.88
2023-02-06T22:13:59.025Z,339.27
2023-02-06T22:16:26.676Z,357.13
2023-02-06T22:18:54.707Z,300.48
2023-02-06T22:21:25.306Z,272.00
2023-02-06T22:23:55.415Z,322.67
2023-02-06T22:26:22.464Z,277.27
2023-02-06T22:28:50.058Z,292.80
2023-02-06T22:31:23.999Z,280.13
2023-02-06T22:33:51.523Z,279.92
2023-02-06T22:36:24.862Z,279.95
2023-02-06T22:39:04.450Z,285.88
2023-02-06T22:41:31.528Z,264.42
2023-02-06T22:43:59.165Z,287.67
2023-02-06T22:46:34.963Z,278.08
2023-02-06T22:49:03.966Z,273.73
2023-02-06T22:51:33.693Z,266.20
2023-02-06T22:54:01.314Z,251.55
2023-02-06T22:56:31.706Z,239.68
2023-02-06T22:59:03.993Z,243.73
2023-02-06T23:01:36.159Z,238.95
2023-02-06T23:04:05.526Z,241.85
2023-02-06T23:06:34.199Z,238.15
2023-02-06T23:09:03.635Z,247.07
2023-02-06T23:11:30.819Z,232.40
2023-02-06T23:14:00.949Z,228.65
2023-02-06T23:16:29.928Z,231.95
2023-02-06T23:19:01.171Z,243.90
2023-02-06T23:21:28.437Z,254.38
2023-02-06T23:23:56.094Z,273.05
2023-02-06T23:26:23.741Z,262.65
2023-02-06T23:28:55.297Z,290.63
2023-02-06T23:31:22.338Z,292.25
2023-02-06T23:33:52.492Z,260.00
2023-02-06T23:36:21.220Z,269.33
2023-02-06T23:38:48.891Z,266.08
2023-02-06T23:41:20.931Z,262.45
2023-02-06T23:44:03.653Z,269.25
2023-02-06T23:46:33.782Z,251.75
2023-02-06T23:49:01.398Z,250.98
2023-02-06T23:51:28.995Z,241.77
2023-02-06T23:53:58.956Z,243.35
2023-02-06T23:56:28.557Z,232.93
2023-02-06T23:58:59.446Z,239.32
